Time;durP1;ratioP1;P1;durP2;ratioP2;P2;SDS_P1;SDS_P2;PMS_P1;PMS_P2;Temp;Humidity;BMP_temperature;BMP_pressure;BME280_temperature;BME280_humidity;BME280_pressure;Samples;Min_cycle;Max_cycle;Signal;HPM_P1;HPM_P2
2023/07/04 00:01:07;;;;;;;11.50;7.50;;;;;;;18.39;67.54;99330.63;106893;1262;60440;-39
2023/07/04 00:03:35;;;;;;;9.40;7.50;;;;;;;18.36;66.99;99331.84;106878;1263;73956;-39
2023/07/04 00:06:04;;;;;;;9.00;7.00;;;;;;;18.33;66.90;99337.61;106816;1268;67886;-39
2023/07/04 00:08:33;;;;;;;8.40;6.50;;;;;;;18.31;66.77;99337.79;106902;1267;71860;-38
2023/07/04 00:11:03;;;;;;;13.10;7.30;;;;;;;18.29;66.77;99341.05;106860;1263;60471;-39
2023/07/04 00:13:32;;;;;;;10.30;7.50;;;;;;;18.25;66.77;99340.52;106892;1263;60287;-39
2023/07/04 00:16:00;;;;;;;11.00;7.50;;;;;;;18.20;66.68;99341.23;106920;1263;73850;-39
2023/07/04 00:18:28;;;;;;;9.30;7.00;;;;;;;18.17;66.29;99339.53;106849;1263;68111;-39
2023/07/04 00:20:57;;;;;;;9.00;7.40;;;;;;;18.16;65.78;99337.96;106842;1263;72694;-39
2023/07/04 00:23:26;;;;;;;11.40;8.30;;;;;;;18.13;65.28;99340.52;106874;1263;59324;-39
2023/07/04 00:25:54;;;;;;;12.10;8.10;;;;;;;18.08;64.84;99341.84;106858;1263;60331;-39
2023/07/04 00:28:23;;;;;;;11.90;8.50;;;;;;;18.03;64.66;99342.36;106861;1264;72673;-39
2023/07/04 00:30:52;;;;;;;12.50;8.60;;;;;;;18.00;64.55;99343.83;106860;1263;66659;-39
2023/07/04 00:33:22;;;;;;;14.50;8.00;;;;;;;17.96;64.58;99348.70;106820;1263;71186;-39
2023/07/04 00:36:07;;;;;;;10.60;8.40;;;;;;;17.92;64.73;99355.33;106809;1263;60425;-39
2023/07/04 00:38:36;;;;;;;11.20;7.70;;;;;;;17.87;65.46;99352.11;106813;1263;60592;-39
2023/07/04 00:41:14;;;;;;;14.80;7.60;;;;;;;17.84;65.69;99352.30;106839;1263;73880;-39
2023/07/04 00:43:59;;;;;;;12.10;7.90;;;;;;;17.85;65.78;99351.90;106817;1263;67922;-39
2023/07/04 00:47:21;;;;;;;12.00;8.30;;;;;;;17.83;65.82;99353.08;106790;1263;72537;-39
2023/07/04 00:49:57;;;;;;;12.20;8.00;;;;;;;17.81;65.96;99355.21;106806;1264;60425;-38
2023/07/04 00:52:28;;;;;;;10.10;7.80;;;;;;;17.78;66.80;99354.63;106726;1263;60508;-38
2023/07/04 00:54:57;;;;;;;9.70;8.00;;;;;;;17.77;67.19;99355.35;106798;1263;73850;-38
2023/07/04 00:57:30;;;;;;;13.80;8.10;;;;;;;17.76;67.35;99361.06;106840;1268;67644;-38
2023/07/04 01:00:08;;;;;;;10.80;7.30;;;;;;;17.79;67.44;99356.65;106852;1263;72696;-39
2023/07/04 01:02:37;;;;;;;9.90;7.60;;;;;;;17.85;67.54;99358.00;106855;1263;60521;-39
2023/07/04 01:05:06;;;;;;;9.70;7.40;;;;;;;17.87;67.71;99357.59;106803;1263;60322;-39
2023/07/04 01:07:43;;;;;;;9.90;7.70;;;;;;;17.87;67.91;99356.65;106866;1263;73821;-39
2023/07/04 01:10:18;;;;;;;10.70;7.80;;;;;;;17.87;68.11;99355.80;106830;1263;67897;-39
2023/07/04 01:12:46;;;;;;;11.80;7.40;;;;;;;17.85;68.28;99356.13;106822;1263;72736;-39
2023/07/04 01:15:14;;;;;;;8.90;7.50;;;;;;;17.84;68.57;99357.31;106848;1263;61712;-39
2023/07/04 01:17:42;;;;;;;10.30;7.30;;;;;;;17.87;68.63;99358.77;106762;1268;60450;-39
2023/07/04 01:20:12;;;;;;;9.90;7.00;;;;;;;17.91;68.52;99359.58;106757;1263;73903;-38
2023/07/04 01:22:59;;;;;;;15.60;7.40;;;;;;;17.92;68.33;99360.12;106821;1263;67580;-38
2023/07/04 01:25:41;;;;;;;10.10;7.30;;;;;;;17.91;68.37;99362.88;106837;1266;71985;-39
2023/07/04 01:28:09;;;;;;;12.90;8.00;;;;;;;17.89;68.31;99367.52;106845;1263;60100;-39
2023/07/04 01:30:38;;;;;;;14.40;7.50;;;;;;;17.84;68.40;99362.79;107001;1263;60418;-39
2023/07/04 01:33:08;;;;;;;14.50;7.50;;;;;;;17.80;68.21;99362.84;106931;1261;74162;-39
2023/07/04 01:35:35;;;;;;;10.90;7.00;;;;;;;17.74;68.15;99362.74;106831;1263;66654;-38
2023/07/04 01:38:05;;;;;;;10.20;6.50;;;;;;;17.73;67.90;99359.84;106845;1267;72523;-39
2023/07/04 01:40:34;;;;;;;10.60;7.10;;;;;;;17.78;67.89;99361.85;106915;1262;60245;-38
2023/07/04 01:43:02;;;;;;;8.00;7.00;;;;;;;17.78;67.52;99363.88;106851;1263;60499;-39
2023/07/04 01:45:30;;;;;;;12.60;7.40;;;;;;;17.75;67.36;99365.00;106993;1261;73802;-39
2023/07/04 01:47:57;;;;;;;10.30;7.50;;;;;;;17.74;67.21;99365.17;107003;1264;67888;-39
2023/07/04 01:50:26;;;;;;;10.30;7.50;;;;;;;17.68;66.91;99366.95;106986;1261;71395;-39
2023/07/04 01:52:53;;;;;;;11.60;7.40;;;;;;;17.64;66.53;99375.91;106994;1266;60539;-39
2023/07/04 01:55:21;;;;;;;10.40;7.40;;;;;;;17.60;66.44;99377.53;106832;1264;60527;-39
2023/07/04 01:57:49;;;;;;;10.70;8.10;;;;;;;17.55;66.16;99379.41;106851;1261;73980;-39
2023/07/04 02:00:18;;;;;;;11.90;7.60;;;;;;;17.49;65.84;99381.73;106812;1269;66619;-39
2023/07/04 02:02:55;;;;;;;10.20;6.90;;;;;;;17.47;65.53;99383.48;106816;1266;70510;-39
2023/07/04 02:05:24;;;;;;;10.60;7.50;;;;;;;17.48;65.40;99381.84;106818;1264;60405;-39
2023/07/04 02:07:52;;;;;;;9.40;6.70;;;;;;;17.46;65.04;99380.52;106822;1267;60335;-39
2023/07/04 02:10:19;;;;;;;9.60;6.50;;;;;;;17.40;64.81;99375.01;106836;1267;73840;-39
2023/07/04 02:12:47;;;;;;;11.10;7.60;;;;;;;17.38;64.49;99376.82;106753;1264;67623;-39
2023/07/04 02:15:15;;;;;;;10.90;7.90;;;;;;;17.34;64.08;99377.17;106778;1263;73085;-39
2023/07/04 02:17:42;;;;;;;10.10;7.70;;;;;;;17.28;63.97;99379.95;106784;1267;60684;-39
2023/07/04 02:20:11;;;;;;;11.00;7.40;;;;;;;17.23;63.97;99385.95;106830;1263;60433;-39
2023/07/04 02:22:41;;;;;;;10.70;7.30;;;;;;;17.16;64.05;99392.49;106825;1263;73901;-38
2023/07/04 02:25:09;;;;;;;13.00;7.90;;;;;;;17.08;64.21;99391.70;106889;1268;66611;-39
2023/07/04 02:27:37;;;;;;;10.70;7.10;;;;;;;16.98;64.35;99388.79;106839;1268;72859;-39
2023/07/04 02:30:05;;;;;;;8.60;6.80;;;;;;;16.96;64.49;99388.17;106812;1263;61695;-39
2023/07/04 02:32:33;;;;;;;13.00;7.60;;;;;;;16.99;64.35;99388.63;106801;1263;60422;-39
2023/07/04 02:35:02;;;;;;;11.00;7.20;;;;;;;16.99;64.28;99386.98;106835;1263;73855;-39
2023/07/04 02:37:30;;;;;;;9.80;7.90;;;;;;;16.98;64.25;99390.36;106908;1263;65598;-39
2023/07/04 02:39:58;;;;;;;12.30;7.70;;;;;;;16.95;64.34;99394.43;106849;1263;72929;-39
2023/07/04 02:42:26;;;;;;;10.60;6.90;;;;;;;16.92;64.49;99394.46;106815;1267;60438;-39
2023/07/04 02:44:54;;;;;;;12.60;7.60;;;;;;;16.90;64.67;99395.48;106839;1264;60293;-39
2023/07/04 02:47:26;;;;;;;11.30;7.40;;;;;;;16.86;64.81;99396.68;106851;1264;72621;-39
2023/07/04 02:49:58;;;;;;;9.50;7.60;;;;;;;16.84;64.98;99398.73;106841;1264;66465;-39
2023/07/04 02:52:25;;;;;;;9.70;7.10;;;;;;;16.87;65.09;99398.86;106786;1264;72653;-39
2023/07/04 02:54:53;;;;;;;9.40;7.20;;;;;;;16.94;65.13;99404.39;106828;1264;60481;-39
2023/07/04 02:57:21;;;;;;;12.60;7.60;;;;;;;16.98;65.09;99405.46;106822;1269;60395;-39
2023/07/04 02:59:49;;;;;;;10.00;7.20;;;;;;;17.00;65.31;99412.64;106862;1268;72627;-39
2023/07/04 03:02:18;;;;;;;12.90;7.80;;;;;;;17.04;65.41;99415.76;106955;1264;66831;-40
2023/07/04 03:05:01;;;;;;;12.30;7.80;;;;;;;17.08;65.30;99414.46;106980;1264;73811;-39
2023/07/04 03:08:11;;;;;;;13.30;8.30;;;;;;;17.11;65.35;99419.07;107076;1266;60353;-37
2023/07/04 03:10:39;;;;;;;14.40;7.70;;;;;;;17.10;65.56;99417.12;106652;1267;60379;-37
2023/07/04 03:13:06;;;;;;;9.20;7.40;;;;;;;17.15;65.78;99421.94;106751;1263;73338;-38
2023/07/04 03:15:36;;;;;;;8.70;7.00;;;;;;;17.24;66.17;99420.70;106754;1267;66307;-39
2023/07/04 03:18:04;;;;;;;11.20;7.50;;;;;;;17.34;66.31;99421.95;106816;1263;72754;-39
2023/07/04 03:20:35;;;;;;;11.60;7.30;;;;;;;17.43;66.41;99419.46;106901;1263;60425;-39
2023/07/04 03:23:03;;;;;;;10.80;7.40;;;;;;;17.50;66.23;99424.88;106879;1266;59626;-39
2023/07/04 03:25:32;;;;;;;10.80;7.30;;;;;;;17.57;65.69;99425.94;106707;1264;73836;-39
2023/07/04 03:27:59;;;;;;;10.10;7.60;;;;;;;17.62;66.22;99427.33;106731;1264;68365;-40
2023/07/04 03:30:28;;;;;;;12.10;8.20;;;;;;;17.67;66.67;99427.44;106697;1268;72824;-40
2023/07/04 03:33:01;;;;;;;9.70;7.00;;;;;;;17.70;66.57;99420.44;106756;1269;60539;-40
2023/07/04 03:35:31;;;;;;;16.50;7.00;;;;;;;17.77;66.15;99424.77;106645;1267;60367;-37
2023/07/04 03:38:12;;;;;;;13.20;7.40;;;;;;;17.86;65.52;99425.45;106793;1266;74171;-39
2023/07/04 03:40:44;;;;;;;9.00;6.70;;;;;;;17.91;64.58;99420.78;106688;1264;68719;-39
2023/07/04 03:43:16;;;;;;;10.80;7.20;;;;;;;17.97;64.10;99420.03;106655;1264;72915;-38
2023/07/04 03:45:45;;;;;;;9.90;7.30;;;;;;;18.01;64.05;99424.06;106809;1263;60456;-37
2023/07/04 03:48:13;;;;;;;10.20;7.60;;;;;;;18.05;63.38;99424.65;106838;1264;60454;-38
2023/07/04 03:50:41;;;;;;;15.20;7.90;;;;;;;18.08;63.48;99421.02;106852;1263;73958;-37
2023/07/04 03:53:11;;;;;;;14.20;7.00;;;;;;;18.07;63.52;99427.28;106760;1264;66732;-39
2023/07/04 03:55:40;;;;;;;11.50;7.80;;;;;;;18.12;63.67;99426.70;106587;1268;71813;-38
2023/07/04 03:58:08;;;;;;;9.30;7.20;;;;;;;18.17;63.53;99425.15;106659;1268;60113;-38
2023/07/04 04:00:35;;;;;;;14.40;8.10;;;;;;;18.23;63.34;99427.83;106750;1268;60590;-38
2023/07/04 04:03:03;;;;;;;12.50;7.70;;;;;;;18.27;63.58;99428.65;106805;1267;73878;-38
2023/07/04 04:05:31;;;;;;;13.50;7.20;;;;;;;18.35;64.34;99430.11;106814;1263;68071;-38
2023/07/04 04:07:58;;;;;;;9.80;6.90;;;;;;;18.46;65.09;99434.38;106778;1264;71471;-38
2023/07/04 04:10:26;;;;;;;11.80;7.30;;;;;;;18.57;65.66;99437.25;106755;1266;60422;-38
2023/07/04 04:12:54;;;;;;;12.40;7.30;;;;;;;18.68;65.87;99441.69;106723;1263;60400;-38
2023/07/04 04:15:21;;;;;;;13.50;7.60;;;;;;;18.79;65.93;99449.23;106708;1264;73467;-38
2023/07/04 04:17:49;;;;;;;11.70;7.90;;;;;;;18.89;65.74;99447.83;106820;1264;66779;-38
2023/07/04 04:20:17;;;;;;;11.00;7.90;;;;;;;19.00;65.46;99447.22;106790;1264;72749;-38
2023/07/04 04:22:47;;;;;;;12.10;7.20;;;;;;;19.11;65.52;99446.75;106718;1264;60930;-38
2023/07/04 04:25:15;;;;;;;13.50;8.00;;;;;;;19.25;65.13;99451.58;106816;1264;60511;-38
2023/07/04 04:27:46;;;;;;;11.40;8.20;;;;;;;19.41;64.84;99458.64;106862;1264;73940;-38
2023/07/04 04:30:14;;;;;;;12.40;8.30;;;;;;;19.54;64.94;99457.83;106867;1266;67576;-38
2023/07/04 04:32:41;;;;;;;10.20;8.10;;;;;;;19.64;64.36;99461.45;106874;1266;71416;-38
2023/07/04 04:35:09;;;;;;;13.30;8.90;;;;;;;19.73;64.33;99468.52;106827;1264;61167;-38
2023/07/04 04:37:37;;;;;;;13.00;9.90;;;;;;;19.81;64.33;99469.02;106755;1263;60389;-38
2023/07/04 04:40:06;;;;;;;14.10;9.50;;;;;;;19.89;64.67;99468.95;106744;1266;72639;-38
2023/07/04 04:42:35;;;;;;;16.10;10.00;;;;;;;19.99;64.75;99469.50;106853;1266;66644;-38
2023/07/04 04:45:03;;;;;;;9.20;8.10;;;;;;;20.10;64.65;99473.06;106835;1266;72782;-38
2023/07/04 04:47:32;;;;;;;13.80;8.90;;;;;;;20.22;64.22;99469.86;106879;1264;59664;-38
2023/07/04 04:50:01;;;;;;;10.00;7.60;;;;;;;20.33;63.68;99470.15;106842;1264;60617;-38
2023/07/04 04:52:31;;;;;;;12.80;7.60;;;;;;;20.45;62.32;99466.79;106826;1266;73837;-38
2023/07/04 04:55:02;;;;;;;12.30;8.30;;;;;;;20.57;61.38;99465.77;106849;1266;67595;-38
2023/07/04 04:57:30;;;;;;;10.40;7.80;;;;;;;20.68;61.43;99471.27;106895;1264;72715;-38
2023/07/04 04:59:59;;;;;;;10.60;7.50;;;;;;;20.79;62.11;99468.30;106874;1264;60405;-38
2023/07/04 05:02:31;;;;;;;14.10;7.60;;;;;;;20.88;60.26;99468.05;107021;1259;60049;-39
2023/07/04 05:04:59;;;;;;;10.10;7.30;;;;;;;20.94;59.63;99469.33;106859;1275;73858;-38
2023/07/04 05:07:27;;;;;;;10.20;7.50;;;;;;;21.01;59.89;99467.13;107168;1260;67904;-38
2023/07/04 05:10:37;;;;;;;13.00;8.30;;;;;;;21.09;59.82;99470.73;107071;1260;71401;-40
2023/07/04 05:13:11;;;;;;;9.40;7.40;;;;;;;21.17;59.68;99470.89;107119;1260;60769;-38
2023/07/04 05:15:39;;;;;;;10.80;7.90;;;;;;;21.22;59.09;99471.10;107427;1254;60168;-39
2023/07/04 05:18:06;;;;;;;11.70;7.70;;;;;;;21.30;58.14;99467.23;107456;1254;72540;-39
2023/07/04 05:20:34;;;;;;;10.50;8.10;;;;;;;21.37;57.80;99468.40;107159;1255;409934;-40
2023/07/04 05:23:52;;;;;;;9.90;7.30;;;;;;;21.49;57.75;99471.90;104328;1289;600403;-39
2023/07/04 05:26:21;;;;;;;11.70;7.30;;;;;;;21.57;58.00;99474.93;106600;1267;60121;-39
2023/07/04 05:28:50;;;;;;;11.80;7.80;;;;;;;21.64;57.85;99476.19;106682;1266;60500;-39
2023/07/04 05:31:21;;;;;;;9.40;7.00;;;;;;;21.70;57.80;99473.14;106666;1266;70978;-39
2023/07/04 05:33:51;;;;;;;11.00;7.90;;;;;;;21.75;56.70;99467.80;106688;1266;68102;-39
2023/07/04 05:36:24;;;;;;;11.20;7.90;;;;;;;21.81;56.04;99471.14;106578;1266;140439;-39
2023/07/04 05:38:52;;;;;;;12.80;7.70;;;;;;;21.86;56.17;99470.83;106724;1266;59774;-39
2023/07/04 05:41:22;;;;;;;11.10;7.40;;;;;;;21.94;56.69;99473.31;106762;1266;59211;-39
2023/07/04 05:43:49;;;;;;;11.60;7.40;;;;;;;22.04;56.29;99477.58;106813;1264;71004;-39
2023/07/04 05:46:18;;;;;;;12.10;7.10;;;;;;;22.13;55.84;99479.33;106627;1266;66756;-39
2023/07/04 05:48:45;;;;;;;11.90;7.30;;;;;;;22.21;55.83;99480.38;106656;1266;72673;-39
2023/07/04 05:51:14;;;;;;;12.90;7.30;;;;;;;22.30;55.54;99480.36;106720;1266;60051;-39
2023/07/04 05:53:43;;;;;;;11.00;7.10;;;;;;;22.39;55.18;99481.77;106808;1266;60064;-39
2023/07/04 05:56:12;;;;;;;11.90;7.40;;;;;;;22.48;54.53;99481.30;106694;1266;71805;-39
2023/07/04 05:58:41;;;;;;;11.60;7.70;;;;;;;22.57;54.38;99486.13;106767;1266;67587;-39
2023/07/04 06:01:19;;;;;;;11.10;7.50;;;;;;;22.66;53.57;99490.75;106785;1266;59773;-38
2023/07/04 06:03:46;;;;;;;11.10;7.90;;;;;;;22.73;52.58;99491.98;106796;1264;59812;-39
2023/07/04 06:06:18;;;;;;;11.90;7.40;;;;;;;22.78;51.82;99491.85;106791;1263;60044;-40
2023/07/04 06:08:47;;;;;;;9.40;7.10;;;;;;;22.84;52.98;99491.66;106766;1266;71842;-40
2023/07/04 06:11:15;;;;;;;12.30;7.10;;;;;;;22.92;52.98;99490.55;106655;1265;66759;-39
2023/07/04 06:13:43;;;;;;;9.50;6.90;;;;;;;23.01;51.06;99493.71;106670;1267;73019;-39
2023/07/04 06:16:10;;;;;;;13.10;7.60;;;;;;;23.08;50.22;99489.95;106619;1266;61029;-40
2023/07/04 06:18:39;;;;;;;16.00;7.40;;;;;;;23.15;49.11;99492.11;106619;1266;60044;-40
2023/07/04 06:21:11;;;;;;;12.20;7.20;;;;;;;23.21;49.57;99493.89;106648;1264;73053;-39
2023/07/04 06:23:39;;;;;;;10.70;6.60;;;;;;;23.29;49.60;99496.09;106735;1266;67779;-39
2023/07/04 06:26:07;;;;;;;10.10;7.10;;;;;;;23.39;49.11;99495.55;106681;1264;72687;-39
2023/07/04 06:28:36;;;;;;;10.40;7.00;;;;;;;23.48;48.96;99496.41;106725;1264;60071;-40
2023/07/04 06:31:06;;;;;;;12.80;6.80;;;;;;;23.55;48.74;99496.90;106716;1264;59633;-40
2023/07/04 06:33:34;;;;;;;9.70;6.60;;;;;;;23.61;47.80;99496.14;106772;1266;71830;-40
2023/07/04 06:36:02;;;;;;;9.60;6.50;;;;;;;23.68;47.89;99496.95;106750;1268;66808;-39
2023/07/04 06:38:29;;;;;;;10.80;7.10;;;;;;;23.74;47.02;99502.13;106676;1268;72775;-40
2023/07/04 06:41:01;;;;;;;10.80;6.50;;;;;;;23.81;46.28;99500.25;106710;1264;62252;-39
2023/07/04 06:43:30;;;;;;;11.90;6.00;;;;;;;23.89;45.92;99500.80;106813;1268;60028;-40
2023/07/04 06:45:58;;;;;;;10.50;6.50;;;;;;;23.99;45.89;99499.75;106766;1263;71778;-39
2023/07/04 06:48:26;;;;;;;10.70;6.30;;;;;;;24.10;45.06;99501.73;106787;1264;67769;-40
2023/07/04 06:51:05;;;;;;;9.00;6.40;;;;;;;24.23;44.71;99501.30;106734;1264;72727;-40
2023/07/04 06:53:34;;;;;;;12.20;6.60;;;;;;;24.38;44.06;99500.88;106727;1265;60040;-40
2023/07/04 06:56:10;;;;;;;9.80;5.80;;;;;;;24.46;42.43;99498.05;106755;1264;60172;-40
2023/07/04 06:58:40;;;;;;;9.50;6.40;;;;;;;24.53;41.45;99500.27;106796;1266;71863;-40
2023/07/04 07:01:09;;;;;;;9.90;6.40;;;;;;;24.59;42.12;99498.37;106721;1264;68400;-40
2023/07/04 07:03:37;;;;;;;8.60;5.60;;;;;;;24.67;42.43;99497.92;106721;1266;72689;-40
2023/07/04 07:06:09;;;;;;;9.00;5.80;;;;;;;24.78;42.42;99496.98;106517;1263;60206;-39
2023/07/04 07:08:37;;;;;;;9.50;5.90;;;;;;;24.91;41.16;99500.73;106544;1266;60500;-40
2023/07/04 07:11:10;;;;;;;8.50;5.70;;;;;;;24.98;39.93;99492.76;106684;1266;73311;-40
2023/07/04 07:13:38;;;;;;;8.40;5.60;;;;;;;25.04;40.09;99488.91;106744;1263;67522;-39
2023/07/04 07:16:11;;;;;;;8.10;5.50;;;;;;;25.12;40.42;99489.79;106620;1266;72727;-38
2023/07/04 07:18:41;;;;;;;8.10;4.90;;;;;;;25.23;40.41;99492.77;107391;1263;60088;-39
2023/07/04 07:21:11;;;;;;;7.40;5.70;;;;;;;25.35;38.99;99492.42;106735;1266;60071;-39
2023/07/04 07:23:39;;;;;;;9.00;5.70;;;;;;;25.48;38.32;99491.05;106790;1266;73114;-39
2023/07/04 07:26:08;;;;;;;8.40;5.90;;;;;;;25.59;38.00;99487.34;106729;1268;67668;-39
2023/07/04 07:28:39;;;;;;;9.60;5.90;;;;;;;25.65;37.90;99477.02;106708;1266;71386;-39
2023/07/04 07:31:13;;;;;;;9.90;6.00;;;;;;;25.77;38.57;99486.27;106720;1264;59625;-39
2023/07/04 07:33:41;;;;;;;7.60;6.10;;;;;;;25.89;38.75;99484.51;106779;1264;60180;-39
2023/07/04 07:36:13;;;;;;;8.40;5.60;;;;;;;25.97;36.86;99486.70;106729;1266;73550;-39
2023/07/04 07:38:40;;;;;;;7.70;5.40;;;;;;;26.03;36.42;99492.73;106735;1268;68078;-39
2023/07/04 07:41:08;;;;;;;8.90;6.10;;;;;;;26.08;36.76;99494.00;106774;1264;72713;-39
2023/07/04 07:43:39;;;;;;;7.80;5.60;;;;;;;26.16;36.36;99498.11;106838;1264;60039;-39
2023/07/04 07:46:14;;;;;;;10.20;5.50;;;;;;;26.23;35.71;99500.86;106942;1263;59317;-39
2023/07/04 07:48:42;;;;;;;7.70;5.90;;;;;;;26.25;35.79;99502.70;106846;1261;72846;-38
2023/07/04 07:51:12;;;;;;;9.50;5.80;;;;;;;26.29;34.95;99496.71;106798;1265;68434;-39
2023/07/04 07:53:41;;;;;;;;;;;;;;;26.37;35.25;99497.80;106807;1263;72542;-39
2023/07/04 07:56:11;;;;;;;7.50;5.50;;;;;;;26.43;35.96;99498.13;106875;1261;60128;-39
2023/07/04 07:58:48;;;;;;;7.50;5.40;;;;;;;26.52;36.58;99501.74;106897;1265;59619;-38
2023/07/04 08:01:29;;;;;;;8.20;5.60;;;;;;;26.67;35.16;99504.05;107026;1262;73823;-39
2023/07/04 08:03:57;;;;;;;9.30;5.70;;;;;;;26.74;34.61;99498.53;106903;1265;66408;-38
2023/07/04 08:06:33;;;;;;;7.20;5.70;;;;;;;26.80;34.48;99498.38;106939;1265;71421;-39
2023/07/04 08:09:02;;;;;;;8.90;6.10;;;;;;;26.90;35.21;99499.77;106784;1263;60133;-38
2023/07/04 08:11:30;;;;;;;7.70;6.00;;;;;;;27.00;34.23;99497.77;106810;1263;59594;-39
2023/07/04 08:13:58;;;;;;;7.90;5.60;;;;;;;27.09;34.33;99493.63;106770;1265;73083;-39
2023/07/04 08:16:40;;;;;;;8.30;5.60;;;;;;;27.18;33.10;99497.91;106903;1263;67092;-39
2023/07/04 08:19:08;;;;;;;7.40;5.20;;;;;;;27.22;33.31;99500.15;106983;1265;70812;-39
2023/07/04 08:21:36;;;;;;;8.90;5.80;;;;;;;27.25;33.26;99499.33;106853;1263;59605;-39
2023/07/04 08:24:10;;;;;;;6.90;5.50;;;;;;;27.30;33.49;99497.33;106740;1263;59588;-39
2023/07/04 08:26:39;;;;;;;7.70;5.10;;;;;;;27.35;33.08;99500.75;106766;1263;73058;-39
2023/07/04 08:29:07;;;;;;;6.60;4.60;;;;;;;27.39;33.36;99499.27;106766;1262;66627;-39
2023/07/04 08:31:35;;;;;;;7.80;5.40;;;;;;;27.49;33.33;99501.08;106889;1266;72705;-39
2023/07/04 08:34:04;;;;;;;7.40;5.20;;;;;;;27.54;32.79;99503.52;106898;1263;59652;-39
2023/07/04 08:36:33;;;;;;;6.90;5.20;;;;;;;27.57;32.01;99500.23;106976;1261;60058;-40
2023/07/04 08:39:00;;;;;;;9.80;5.20;;;;;;;27.58;32.10;99502.54;107002;1261;73034;-39
2023/07/04 08:41:33;;;;;;;7.00;4.70;;;;;;;27.62;32.18;99503.60;106853;1265;67924;-39
2023/07/04 08:44:34;;;;;;;8.60;4.80;;;;;;;27.66;32.06;99503.98;106893;1265;72591;-39
2023/07/04 08:47:02;;;;;;;8.10;4.80;;;;;;;27.67;31.28;99500.77;106853;1263;60067;-39
2023/07/04 08:49:40;;;;;;;8.70;4.80;;;;;;;27.69;31.97;99503.79;106913;1263;60165;-40
2023/07/04 08:52:16;;;;;;;6.10;4.60;;;;;;;27.77;32.42;99500.17;106881;1265;73048;-39
2023/07/04 08:54:44;;;;;;;8.00;4.80;;;;;;;27.90;32.66;99498.02;107000;1264;67125;-39
2023/07/04 08:57:27;;;;;;;12.10;4.70;;;;;;;28.01;31.82;99499.13;106849;1265;72674;-39
2023/07/04 09:00:12;;;;;;;7.00;5.20;;;;;;;28.07;31.20;99498.65;106691;1261;59327;-39
2023/07/04 09:03:02;;;;;;;6.30;3.90;;;;;;;28.07;31.00;99495.96;106793;1266;59843;-39
2023/07/04 09:05:56;;;;;;;7.80;4.50;;;;;;;28.07;30.72;99486.79;106952;1265;73051;-39
2023/07/04 09:08:36;;;;;;;7.60;4.90;;;;;;;28.14;31.45;99489.89;106846;1263;67908;-39
2023/07/04 09:11:08;;;;;;;6.70;4.30;;;;;;;28.21;30.94;99489.78;106854;1265;72710;-39
2023/07/04 09:13:37;;;;;;;5.50;4.50;;;;;;;28.29;31.18;99491.05;106845;1261;60203;-39
2023/07/04 09:16:10;;;;;;;5.20;4.30;;;;;;;28.40;31.14;99489.27;106893;1260;60072;-39
2023/07/04 09:18:56;;;;;;;5.30;4.40;;;;;;;28.53;29.73;99488.89;106982;1265;72022;-39
2023/07/04 09:21:25;;;;;;;5.40;4.20;;;;;;;28.58;29.89;99487.40;106830;1265;67553;-39
2023/07/04 09:23:58;;;;;;;5.20;4.70;;;;;;;28.60;29.95;99489.52;106856;1261;72724;-40
2023/07/04 09:26:52;;;;;;;6.10;4.60;;;;;;;28.66;29.89;99489.33;106826;1264;59594;-40
2023/07/04 09:29:24;;;;;;;7.30;4.10;;;;;;;28.71;29.79;99490.27;106880;1260;59425;-40
2023/07/04 09:31:57;;;;;;;5.20;4.40;;;;;;;28.74;29.81;99488.89;106861;1263;73502;-40
2023/07/04 09:34:36;;;;;;;6.10;4.40;;;;;;;28.79;30.62;99483.98;106870;1265;67885;-40
2023/07/04 09:37:15;;;;;;;5.60;4.00;;;;;;;28.87;30.84;99480.57;106828;1261;71104;-40
2023/07/04 09:39:54;;;;;;;7.00;4.40;;;;;;;28.99;30.74;99477.00;106818;1265;60893;-40
2023/07/04 09:42:32;;;;;;;7.80;4.30;;;;;;;29.14;30.83;99479.52;106849;1263;60486;-40
2023/07/04 09:45:13;;;;;;;9.80;4.70;;;;;;;29.28;29.72;99474.74;106878;1263;73896;-39
2023/07/04 09:47:44;;;;;;;5.90;4.40;;;;;;;29.27;29.54;99482.79;108784;1265;66472;-39
2023/07/04 09:50:14;;;;;;;5.60;4.20;;;;;;;29.14;29.23;99483.29;108770;1263;71418;-39
2023/07/04 09:52:42;;;;;;;6.80;4.50;;;;;;;29.05;29.87;99477.92;107881;1265;60577;-39
2023/07/04 09:55:14;;;;;;;5.50;4.00;;;;;;;29.08;30.99;99479.28;106732;1268;60433;-38
2023/07/04 09:57:41;;;;;;;6.30;4.40;;;;;;;29.15;30.13;99477.84;106846;1261;73840;-38
2023/07/04 10:00:21;;;;;;;6.90;4.40;;;;;;;29.21;30.26;99477.05;106785;1260;66630;-38
2023/07/04 10:02:56;;;;;;;7.40;4.80;;;;;;;29.30;29.58;99474.88;106956;1266;71593;-38
2023/07/04 10:05:29;;;;;;;5.80;4.10;;;;;;;29.33;29.02;99470.51;106877;1265;60697;-38
2023/07/04 10:08:05;;;;;;;6.30;4.20;;;;;;;29.36;30.06;99474.23;106888;1261;60291;-38
2023/07/04 10:10:55;;;;;;;5.60;4.30;;;;;;;29.45;30.12;99471.82;106956;1265;72053;-38
2023/07/04 10:13:25;;;;;;;5.80;4.10;;;;;;;29.58;29.63;99474.65;106769;1260;67569;-38
2023/07/04 10:15:53;;;;;;;6.40;4.30;;;;;;;29.67;29.15;99478.48;106876;1261;73178;-38
2023/07/04 10:18:26;;;;;;;5.30;4.30;;;;;;;29.65;29.53;99475.30;106858;1266;60383;-38
2023/07/04 10:20:57;;;;;;;4.50;3.90;;;;;;;29.61;29.73;99479.98;106919;1261;60265;-38
2023/07/04 10:23:26;;;;;;;5.30;4.20;;;;;;;29.59;29.64;99482.23;106878;1263;74298;-38
2023/07/04 10:25:58;;;;;;;5.10;3.70;;;;;;;29.60;29.53;99482.10;106898;1266;66299;-38
2023/07/04 10:28:27;;;;;;;5.50;3.90;;;;;;;29.63;29.71;99481.23;106893;1261;72706;-38
2023/07/04 10:31:00;;;;;;;5.50;4.10;;;;;;;29.74;30.05;99475.95;106846;1265;59296;-38
2023/07/04 10:33:50;;;;;;;5.20;4.10;;;;;;;29.96;30.17;99482.46;106836;1262;60073;-38
2023/07/04 10:36:34;;;;;;;5.10;4.00;;;;;;;30.26;29.37;99479.47;106855;1262;73055;-38
2023/07/04 10:39:06;;;;;;;4.50;3.60;;;;;;;30.51;29.12;99481.55;106840;1266;66454;-38
2023/07/04 10:42:07;;;;;;;6.10;4.10;;;;;;;30.74;28.09;99477.56;106879;1265;73071;-38
2023/07/04 10:44:34;;;;;;;7.30;4.50;;;;;;;30.82;28.01;99481.15;106975;1261;60414;-38
2023/07/04 10:47:05;;;;;;;7.40;4.30;;;;;;;30.84;28.56;99481.32;106872;1263;60372;-38
2023/07/04 10:49:36;;;;;;;7.50;4.10;;;;;;;31.01;28.78;99482.20;106872;1262;74212;-39
2023/07/04 10:52:12;;;;;;;6.00;4.00;;;;;;;31.27;28.19;99482.42;106847;1266;67962;-38
2023/07/04 10:54:39;;;;;;;4.80;4.00;;;;;;;31.41;27.52;99481.35;106834;1267;72822;-38
2023/07/04 10:57:10;;;;;;;5.40;3.60;;;;;;;31.45;27.77;99483.02;106872;1264;59245;-38
2023/07/04 10:59:40;;;;;;;4.70;3.90;;;;;;;31.53;27.21;99478.34;106832;1264;60381;-38
2023/07/04 11:02:37;;;;;;;5.20;3.90;;;;;;;31.69;27.61;99478.14;106881;1265;73811;-38
2023/07/04 11:05:10;;;;;;;3.80;3.30;;;;;;;31.94;26.18;99475.62;106863;1266;67581;-39
2023/07/04 11:07:45;;;;;;;5.40;3.60;;;;;;;31.93;26.10;99476.27;106882;1265;71404;-39
2023/07/04 11:10:13;;;;;;;4.60;3.90;;;;;;;31.91;26.96;99476.17;106878;1261;60281;-39
2023/07/04 11:12:42;;;;;;;6.60;3.80;;;;;;;31.86;26.73;99478.80;106936;1261;60093;-39
2023/07/04 11:15:18;;;;;;;;;;;;;;;31.81;26.03;99478.60;107020;1260;73880;-39
2023/07/04 11:17:46;;;;;;;7.30;4.40;;;;;;;31.71;26.04;99474.95;106835;1262;67578;-39
2023/07/04 11:20:17;;;;;;;5.00;4.30;;;;;;;31.77;25.59;99472.16;106844;1265;72751;-39
2023/07/04 11:22:51;;;;;;;5.00;3.90;;;;;;;31.94;26.45;99470.83;106915;1265;60454;-39
2023/07/04 11:25:43;;;;;;;8.20;3.80;;;;;;;32.33;26.38;99465.14;106978;1261;60514;-39
2023/07/04 11:28:34;;;;;;;6.50;3.90;;;;;;;32.72;25.99;99466.55;106855;1261;73837;-39
2023/07/04 11:31:27;;;;;;;5.70;4.10;;;;;;;33.01;25.10;99467.14;106633;1261;67602;-39
2023/07/04 11:33:56;;;;;;;5.50;4.00;;;;;;;33.05;24.13;99466.54;106922;1263;71452;-39
2023/07/04 11:36:26;;;;;;;7.50;3.90;;;;;;;33.03;24.57;99462.64;106921;1265;60664;-39
2023/07/04 11:38:58;;;;;;;5.80;4.00;;;;;;;33.14;25.31;99457.90;106941;1265;59191;-39
2023/07/04 11:41:29;;;;;;;7.00;3.90;;;;;;;33.38;24.93;99457.85;106943;1261;73554;-39
2023/07/04 11:43:58;;;;;;;4.40;3.30;;;;;;;33.52;24.89;99456.65;106914;1264;66488;-39